createdAt,value
2022-08-26T00:00:00.714Z,88.7
2022-08-26T00:01:00.861Z,88.9
2022-08-26T00:02:01.001Z,88.8
2022-08-26T00:03:01.227Z,88.7
2022-08-26T00:04:00.336Z,88.9
2022-08-26T00:05:00.438Z,88.8
2022-08-26T00:06:00.608Z,88.8
2022-08-26T00:07:00.748Z,88.7
2022-08-26T00:08:00.896Z,88.5
2022-08-26T00:09:01.055Z,88.5
2022-08-26T00:10:01.215Z,88.5
2022-08-26T00:11:00.379Z,88.6
2022-08-26T00:12:00.512Z,88.7
2022-08-26T00:13:00.723Z,88.7
2022-08-26T00:14:00.793Z,88.6
2022-08-26T00:15:00.940Z,88.6
2022-08-26T00:16:01.112Z,88.6
2022-08-26T00:17:01.297Z,88.6
2022-08-26T00:18:00.389Z,88.7
2022-08-26T00:19:00.541Z,88.8
2022-08-26T00:20:00.712Z,88.8
2022-08-26T00:21:00.868Z,88.8
2022-08-26T00:22:00.988Z,88.6
2022-08-26T00:23:01.203Z,88.7
2022-08-26T00:24:00.307Z,88.9
2022-08-26T00:25:00.452Z,88.7
2022-08-26T00:26:00.618Z,88.8
2022-08-26T00:27:00.743Z,88.7
2022-08-26T00:28:00.901Z,88.8
2022-08-26T00:29:01.047Z,89.1
2022-08-26T00:30:01.206Z,89
2022-08-26T00:31:00.364Z,88.7
2022-08-26T00:32:00.581Z,88.8
2022-08-26T00:33:00.684Z,88.9
2022-08-26T00:34:00.798Z,88.5
2022-08-26T00:35:00.947Z,88.9
2022-08-26T00:36:01.091Z,89.1
2022-08-26T00:37:00.271Z,89.1
2022-08-26T00:38:00.406Z,88.9
2022-08-26T00:39:00.574Z,88.9
2022-08-26T00:40:01.048Z,89
2022-08-26T00:41:00.845Z,88.9
2022-08-26T00:42:01.000Z,89
2022-08-26T00:43:01.178Z,88.9
2022-08-26T00:44:00.323Z,88.9
2022-08-26T00:45:00.456Z,88.8
2022-08-26T00:46:00.673Z,88.6
2022-08-26T00:47:00.764Z,88.4
2022-08-26T00:48:00.916Z,88.7
2022-08-26T00:49:01.088Z,88.7
2022-08-26T00:50:01.210Z,88.6
2022-08-26T00:51:00.360Z,89.2
2022-08-26T00:52:00.510Z,89.4
2022-08-26T00:53:00.739Z,89.6
2022-08-26T00:54:00.859Z,89.6
2022-08-26T00:55:00.974Z,89.4
2022-08-26T00:56:01.124Z,89.6
2022-08-26T00:57:00.373Z,89.3
2022-08-26T00:58:00.410Z,89.2
2022-08-26T00:59:00.583Z,89.2
2022-08-26T01:00:00.738Z,89.1
2022-08-26T01:01:00.941Z,89.1
2022-08-26T01:02:02.828Z,89.1
2022-08-26T01:03:01.221Z,89.1
2022-08-26T01:04:00.376Z,89
2022-08-26T01:05:00.490Z,89.1
2022-08-26T01:06:00.632Z,89.1
2022-08-26T01:07:00.782Z,89.3
2022-08-26T01:08:00.920Z,89.2
2022-08-26T01:09:01.064Z,89
2022-08-26T01:10:01.224Z,89.1
2022-08-26T01:11:00.380Z,89.2
2022-08-26T01:12:00.514Z,89.2
2022-08-26T01:13:00.726Z,89.3
2022-08-26T01:14:00.816Z,89.4
2022-08-26T01:15:00.962Z,89.4
2022-08-26T01:16:01.186Z,89.3
2022-08-26T01:17:00.280Z,89.4
2022-08-26T01:18:00.426Z,89.4
2022-08-26T01:19:00.574Z,89.5
2022-08-26T01:20:00.720Z,89.6
2022-08-26T01:21:00.903Z,89.6
2022-08-26T01:22:01.033Z,89.6
2022-08-26T01:23:01.610Z,89.4
2022-08-26T01:24:00.313Z,89.5
2022-08-26T01:25:00.460Z,89.6
2022-08-26T01:26:00.627Z,89.5
2022-08-26T01:27:00.755Z,89.6
2022-08-26T01:28:00.931Z,89.5
2022-08-26T01:29:01.052Z,89.4
2022-08-26T01:30:01.208Z,89
2022-08-26T01:31:00.372Z,88.7
2022-08-26T01:32:00.621Z,89.1
2022-08-26T01:33:00.741Z,89.3
2022-08-26T01:34:00.815Z,89.4
2022-08-26T01:35:00.965Z,89.5
2022-08-26T01:36:01.150Z,89.3
2022-08-26T01:37:00.266Z,89.1
2022-08-26T01:38:00.425Z,89.2
2022-08-26T01:39:00.596Z,89.3
2022-08-26T01:40:00.766Z,89.1
2022-08-26T01:41:00.886Z,89.3
2022-08-26T01:42:03.038Z,89.5
2022-08-26T01:43:01.207Z,89.7
2022-08-26T01:44:00.323Z,89.6
2022-08-26T01:45:00.489Z,89.6
2022-08-26T01:46:00.676Z,89.5
2022-08-26T01:47:00.787Z,89.6
2022-08-26T01:48:00.929Z,89.5
2022-08-26T01:49:01.073Z,89.6
2022-08-26T01:50:01.261Z,89.6
2022-08-26T01:51:00.411Z,89.7
2022-08-26T01:52:00.570Z,89.9
2022-08-26T01:53:00.714Z,89.7
2022-08-26T01:54:00.873Z,89.8
2022-08-26T01:55:01.048Z,89.9
2022-08-26T01:56:01.177Z,90
2022-08-26T01:57:00.327Z,89.9
2022-08-26T01:58:00.484Z,89.8
2022-08-26T01:59:00.632Z,89.8
2022-08-26T02:00:00.816Z,89.6
2022-08-26T02:01:00.990Z,89.7
2022-08-26T02:02:01.108Z,89.5
2022-08-26T02:03:01.305Z,89.5
2022-08-26T02:04:00.378Z,89.8
2022-08-26T02:05:00.641Z,89.8
2022-08-26T02:06:00.696Z,89.7
2022-08-26T02:07:00.833Z,89.6
2022-08-26T02:08:00.968Z,89.7
2022-08-26T02:09:01.127Z,89.6
2022-08-26T02:10:00.315Z,89.7
2022-08-26T02:11:00.436Z,89.8
2022-08-26T02:12:00.585Z,89.7
2022-08-26T02:13:00.823Z,89.7
2022-08-26T02:14:00.886Z,89.7
2022-08-26T02:15:01.049Z,89.8
2022-08-26T02:16:01.195Z,89.9
2022-08-26T02:17:00.337Z,89.9
2022-08-26T02:18:00.489Z,89.9
2022-08-26T02:19:00.654Z,89.8
2022-08-26T02:20:00.816Z,89.7
2022-08-26T02:21:00.960Z,89.7
2022-08-26T02:22:01.107Z,89.5
2022-08-26T02:24:00.374Z,89.5
2022-08-26T02:25:00.515Z,89.6
2022-08-26T02:26:00.680Z,89.6
2022-08-26T02:27:00.824Z,89.8
2022-08-26T02:28:00.975Z,89.8
2022-08-26T02:29:01.168Z,89.8
2022-08-26T02:30:00.292Z,89.8
2022-08-26T02:31:00.450Z,89.8
2022-08-26T02:32:00.599Z,89.9
2022-08-26T02:33:00.752Z,89.9
2022-08-26T02:34:00.919Z,90
2022-08-26T02:35:01.044Z,90
2022-08-26T02:36:01.194Z,89.8
2022-08-26T02:37:00.347Z,89.8
2022-08-26T02:38:00.500Z,89.9
2022-08-26T02:39:00.677Z,90
2022-08-26T02:40:00.847Z,90
2022-08-26T02:41:00.948Z,90
2022-08-26T02:42:01.112Z,90
2022-08-26T02:44:00.384Z,89.9
2022-08-26T02:45:00.514Z,90
2022-08-26T02:46:02.187Z,89.9
2022-08-26T02:47:00.845Z,90
2022-08-26T02:48:00.965Z,90
2022-08-26T02:49:01.125Z,90.2
2022-08-26T02:50:00.327Z,90.3
2022-08-26T02:51:00.416Z,90.3
2022-08-26T02:52:00.581Z,90.3
2022-08-26T02:53:00.746Z,90.2
2022-08-26T02:54:00.871Z,90.2
2022-08-26T02:55:01.042Z,90.3
2022-08-26T02:56:01.169Z,90.2
2022-08-26T02:57:00.334Z,90.1
2022-08-26T02:58:00.496Z,90.1
2022-08-26T02:59:00.644Z,90.1
2022-08-26T03:00:00.823Z,90
2022-08-26T03:01:01.572Z,89.8
2022-08-26T03:02:01.160Z,89.8
2022-08-26T03:03:01.269Z,90.2
2022-08-26T03:04:00.397Z,90.2
2022-08-26T03:05:01.978Z,90.2
2022-08-26T03:06:00.703Z,90.2
2022-08-26T03:07:00.844Z,90.2
2022-08-26T03:08:00.997Z,90.1
2022-08-26T03:09:01.141Z,89.9
2022-08-26T03:10:00.319Z,89.9
2022-08-26T03:11:01.629Z,89.8
2022-08-26T03:12:00.592Z,89.6
2022-08-26T03:13:00.780Z,89.6
2022-08-26T03:14:01.746Z,89.7
2022-08-26T03:15:01.057Z,89.7
2022-08-26T03:16:01.214Z,90.1
2022-08-26T03:17:00.352Z,90.2
2022-08-26T03:18:00.497Z,90.2
2022-08-26T03:19:00.658Z,90.2
2022-08-26T03:20:00.811Z,90.3
2022-08-26T03:21:00.964Z,90.3
2022-08-26T03:22:01.088Z,90
2022-08-26T03:23:01.305Z,90.3
2022-08-26T03:24:00.520Z,90.2
2022-08-26T03:25:00.566Z,90.3
2022-08-26T03:26:00.701Z,90.3
2022-08-26T03:27:00.843Z,90.3
2022-08-26T03:28:00.994Z,90.4
2022-08-26T03:29:01.141Z,90
2022-08-26T03:30:00.320Z,90.2
2022-08-26T03:31:00.520Z,90.3
2022-08-26T03:32:00.585Z,90.4
2022-08-26T03:33:00.750Z,90.3
2022-08-26T03:34:00.894Z,90.5
2022-08-26T03:35:01.051Z,90.5
2022-08-26T03:36:01.182Z,90.5
2022-08-26T03:37:00.334Z,90.5
2022-08-26T03:38:00.485Z,90.5
2022-08-26T03:39:00.630Z,90.4
2022-08-26T03:40:00.862Z,90.5
2022-08-26T03:41:00.936Z,90.6
2022-08-26T03:42:01.085Z,90.5
2022-08-26T03:43:01.286Z,90.5
2022-08-26T03:44:01.866Z,90.4
2022-08-26T03:45:00.549Z,90.3
2022-08-26T03:46:00.678Z,90.4
2022-08-26T03:47:00.826Z,90.4
2022-08-26T03:48:00.985Z,90.5
2022-08-26T03:49:01.156Z,90.7
2022-08-26T03:50:00.285Z,90.6
2022-08-26T03:51:00.452Z,90.6
2022-08-26T03:52:00.584Z,90.7
2022-08-26T03:53:00.726Z,90.8
2022-08-26T03:54:00.882Z,90.9
2022-08-26T03:55:01.060Z,91
2022-08-26T03:56:01.197Z,91
2022-08-26T03:57:00.346Z,91.3
2022-08-26T03:58:00.487Z,91.3
2022-08-26T03:59:00.639Z,91.4
2022-08-26T04:00:00.809Z,91.3
2022-08-26T04:01:00.947Z,91.1
2022-08-26T04:02:01.150Z,91.1
2022-08-26T04:03:01.362Z,91
2022-08-26T04:04:00.848Z,90.7
2022-08-26T04:05:00.548Z,90.3
2022-08-26T04:06:00.704Z,90.6
2022-08-26T04:07:00.851Z,90.8
2022-08-26T04:08:01.010Z,90.8
2022-08-26T04:09:01.152Z,91.1
2022-08-26T04:10:00.330Z,91
2022-08-26T04:11:00.465Z,90.7
2022-08-26T04:12:00.608Z,90.8
2022-08-26T04:13:00.780Z,90.8
2022-08-26T04:14:00.914Z,90.8
2022-08-26T04:15:01.093Z,90.7
2022-08-26T04:16:01.250Z,90.7
2022-08-26T04:17:00.364Z,90.7
2022-08-26T04:18:00.512Z,90.7
2022-08-26T04:19:00.668Z,90.7
2022-08-26T04:20:00.851Z,90.7
2022-08-26T04:21:00.978Z,90.7
2022-08-26T04:22:01.123Z,90.8
2022-08-26T04:23:00.262Z,90.8
2022-08-26T04:24:00.421Z,90.6
2022-08-26T04:25:00.583Z,90.5
2022-08-26T04:26:00.745Z,90.6
2022-08-26T04:27:00.866Z,90.6
2022-08-26T04:28:01.017Z,90.7
2022-08-26T04:29:01.158Z,90.8
2022-08-26T04:30:00.298Z,90.8
2022-08-26T04:31:00.498Z,90.8
2022-08-26T04:32:00.605Z,90.7
2022-08-26T04:33:00.750Z,90.6
2022-08-26T04:34:00.901Z,90.7
2022-08-26T04:35:01.059Z,90.8
2022-08-26T04:36:01.232Z,90.8
2022-08-26T04:37:00.381Z,90.6
2022-08-26T04:38:00.518Z,90.5
2022-08-26T04:39:00.675Z,90.6
2022-08-26T04:40:00.929Z,90.5
2022-08-26T04:41:00.990Z,90.4
2022-08-26T04:42:01.762Z,90.6
2022-08-26T04:43:00.303Z,90.8
2022-08-26T04:44:00.426Z,90.9
2022-08-26T04:45:00.577Z,90.9
2022-08-26T04:46:00.824Z,91
2022-08-26T04:47:00.882Z,91
2022-08-26T04:48:01.024Z,91
2022-08-26T04:49:01.178Z,91
2022-08-26T04:50:00.325Z,90.9
2022-08-26T04:51:00.495Z,90.9
2022-08-26T04:52:00.627Z,90.8
2022-08-26T04:53:00.773Z,90.9
2022-08-26T04:54:00.929Z,90.8
2022-08-26T04:55:01.074Z,90.8
2022-08-26T04:56:01.241Z,90.7
2022-08-26T04:57:00.360Z,90.7
2022-08-26T04:58:00.538Z,90.8
2022-08-26T04:59:00.678Z,90.8
2022-08-26T05:00:00.867Z,90.8
2022-08-26T05:01:00.992Z,90.9
2022-08-26T05:02:01.187Z,90.9
2022-08-26T05:03:00.324Z,90.9
2022-08-26T05:04:00.507Z,90.9
2022-08-26T05:05:00.610Z,90.9
2022-08-26T05:06:00.760Z,90.9
2022-08-26T05:07:02.712Z,90.8
2022-08-26T05:08:01.074Z,90.8
2022-08-26T05:09:01.240Z,90.8
2022-08-26T05:10:00.354Z,90.7
2022-08-26T05:11:00.507Z,90.7
2022-08-26T05:12:00.651Z,90.8
2022-08-26T05:13:00.796Z,90.8
2022-08-26T05:14:02.379Z,90.7
2022-08-26T05:15:01.089Z,90.8
2022-08-26T05:16:01.530Z,90.8
2022-08-26T05:17:00.391Z,90.8
2022-08-26T05:18:00.573Z,90.7
2022-08-26T05:19:00.720Z,90.6
2022-08-26T05:20:00.850Z,90.6
2022-08-26T05:21:00.992Z,90.7
2022-08-26T05:22:01.151Z,90.7
2022-08-26T05:23:00.294Z,90.8
2022-08-26T05:24:00.454Z,90.9
2022-08-26T05:25:00.632Z,90.8
2022-08-26T05:26:00.753Z,90.5
2022-08-26T05:27:00.891Z,90.6
2022-08-26T05:28:01.043Z,90.8
2022-08-26T05:29:01.201Z,90.9
2022-08-26T05:30:00.382Z,90.9
2022-08-26T05:31:00.587Z,91
2022-08-26T05:32:00.674Z,91
2022-08-26T05:33:00.807Z,91
2022-08-26T05:34:03.698Z,90.9
2022-08-26T05:35:01.101Z,90.8
2022-08-26T05:36:01.253Z,90.8
2022-08-26T05:37:00.428Z,90.7
2022-08-26T05:38:00.547Z,90.7
2022-08-26T05:39:00.703Z,90.6
2022-08-26T05:40:00.881Z,90.5
2022-08-26T05:41:01.002Z,90.5
2022-08-26T05:42:01.198Z,90.6
2022-08-26T05:43:00.323Z,90.6
2022-08-26T05:44:00.480Z,90.5
2022-08-26T05:45:00.632Z,90.5
2022-08-26T05:46:00.823Z,90.3
2022-08-26T05:47:00.969Z,90.2
2022-08-26T05:48:01.084Z,90.2
2022-08-26T05:49:01.233Z,90.1
2022-08-26T05:50:00.378Z,90.1
2022-08-26T05:51:00.543Z,90.1
2022-08-26T05:52:00.699Z,90.1
2022-08-26T05:53:00.842Z,90.1
2022-08-26T05:54:00.981Z,90
2022-08-26T05:55:01.124Z,89.9
2022-08-26T05:56:00.282Z,89.9
2022-08-26T05:57:00.449Z,89.8
2022-08-26T05:58:00.577Z,89.8
2022-08-26T05:59:00.734Z,89.8
2022-08-26T06:00:00.891Z,89.7
2022-08-26T06:01:01.033Z,89.6
2022-08-26T06:02:01.246Z,89.6
2022-08-26T06:03:00.575Z,89.7
2022-08-26T06:04:01.650Z,89.7
2022-08-26T06:05:00.645Z,89.8
2022-08-26T06:06:00.789Z,90
2022-08-26T06:07:00.939Z,90
2022-08-26T06:08:01.112Z,90
2022-08-26T06:09:01.250Z,90
2022-08-26T06:10:28.335Z,90.1
2022-08-26T06:11:00.540Z,90.2
2022-08-26T06:12:00.689Z,90.2
2022-08-26T06:13:04.588Z,90.2
2022-08-26T06:14:03.835Z,90.2
2022-08-26T06:15:01.146Z,90.2
2022-08-26T06:16:00.379Z,90.2
2022-08-26T06:17:00.449Z,90.3
2022-08-26T06:18:00.621Z,90.2
2022-08-26T06:19:00.772Z,90.2
2022-08-26T06:20:00.904Z,90.1
2022-08-26T06:21:01.053Z,90.1
2022-08-26T06:22:01.205Z,90
2022-08-26T06:23:00.353Z,89.8
2022-08-26T06:24:00.529Z,89.6
2022-08-26T06:25:00.674Z,89.5
2022-08-26T06:26:00.819Z,89.4
2022-08-26T06:27:00.973Z,89.2
2022-08-26T06:28:01.124Z,89.2
2022-08-26T06:29:00.297Z,89.4
2022-08-26T06:30:00.426Z,89.3
2022-08-26T06:31:00.625Z,88.7
2022-08-26T06:32:00.728Z,88.8
2022-08-26T06:33:00.874Z,88.6
2022-08-26T06:34:01.039Z,88.6
2022-08-26T06:35:01.199Z,88.7
2022-08-26T06:36:00.331Z,88.4
2022-08-26T06:37:01.296Z,88.2
2022-08-26T06:38:00.639Z,88.1
2022-08-26T06:39:00.782Z,88.1
2022-08-26T06:40:01.004Z,88.1
2022-08-26T06:41:01.081Z,88.2
2022-08-26T06:42:01.226Z,88.1
2022-08-26T06:43:00.367Z,87.9
2022-08-26T06:44:00.523Z,87.9
2022-08-26T06:45:00.689Z,88
2022-08-26T06:46:00.856Z,88
2022-08-26T06:47:01.004Z,87.9
2022-08-26T06:48:01.121Z,87.9
2022-08-26T06:49:00.286Z,87.7
2022-08-26T06:50:00.427Z,87.4
2022-08-26T06:51:00.572Z,87.2
2022-08-26T06:52:00.735Z,87.1
2022-08-26T06:53:00.869Z,87
2022-08-26T06:54:01.048Z,86.9
2022-08-26T06:55:01.184Z,86.9
2022-08-26T06:56:00.321Z,86.9
2022-08-26T06:57:00.483Z,86.9
2022-08-26T06:58:00.636Z,86.9
2022-08-26T06:59:00.803Z,87.2
2022-08-26T07:00:00.944Z,86.8
2022-08-26T07:01:09.124Z,87.1
2022-08-26T07:02:01.247Z,87
2022-08-26T07:03:00.456Z,86.8
2022-08-26T07:04:00.564Z,87
2022-08-26T07:05:00.702Z,86.6
2022-08-26T07:06:00.839Z,86.6
2022-08-26T07:07:00.991Z,86.2
2022-08-26T07:08:01.136Z,85.9
2022-08-26T07:09:00.321Z,85.7
2022-08-26T07:10:00.447Z,85.9
2022-08-26T07:11:00.601Z,86.1
2022-08-26T07:12:00.744Z,85.7
2022-08-26T07:13:01.027Z,85.4
2022-08-26T07:14:01.067Z,85.2
2022-08-26T07:15:01.200Z,85
2022-08-26T07:16:03.050Z,85.3
2022-08-26T07:17:00.491Z,84.1
2022-08-26T07:18:00.646Z,83.6
2022-08-26T07:19:01.145Z,83.4
2022-08-26T07:20:00.940Z,83.6
2022-08-26T07:21:01.105Z,83.6
2022-08-26T07:22:01.255Z,84.3
2022-08-26T07:23:00.411Z,84.3
2022-08-26T07:24:01.485Z,84
2022-08-26T07:25:00.706Z,83
2022-08-26T07:26:00.849Z,83.7
2022-08-26T07:27:00.998Z,83.4
2022-08-26T07:28:01.155Z,82.4
2022-08-26T07:29:00.311Z,82.5
2022-08-26T07:30:00.467Z,82.3
2022-08-26T07:31:00.627Z,82.6
2022-08-26T07:32:00.766Z,82.6
2022-08-26T07:33:00.902Z,82.3
2022-08-26T07:34:01.050Z,82.2
2022-08-26T07:35:01.222Z,82.3
2022-08-26T07:36:00.348Z,81.5
2022-08-26T07:37:00.512Z,82.3
2022-08-26T07:38:00.663Z,82.3
2022-08-26T07:39:00.801Z,82.3
2022-08-26T07:40:00.983Z,81.9
2022-08-26T07:41:01.098Z,82.1
2022-08-26T07:42:01.251Z,82.3
2022-08-26T07:43:01.006Z,82.3
2022-08-26T07:44:00.552Z,82.6
2022-08-26T07:45:00.730Z,82.7
2022-08-26T07:46:00.860Z,82.4
2022-08-26T07:47:01.012Z,82.4
2022-08-26T07:48:01.161Z,82.2
2022-08-26T07:49:00.380Z,82.7
2022-08-26T07:50:00.486Z,82.5
2022-08-26T07:51:00.627Z,81.9
2022-08-26T07:52:00.773Z,81.9
2022-08-26T07:53:00.924Z,81.7
2022-08-26T07:54:01.073Z,81.8
2022-08-26T07:55:01.259Z,82.1
2022-08-26T07:56:00.381Z,81.8
2022-08-26T07:57:00.540Z,81.7
2022-08-26T07:58:00.682Z,80.7
2022-08-26T07:59:00.821Z,81
2022-08-26T08:00:00.995Z,80.4
2022-08-26T08:01:01.161Z,80
2022-08-26T08:02:00.398Z,79.5
2022-08-26T08:03:00.441Z,79.2
2022-08-26T08:04:00.581Z,79.4
2022-08-26T08:05:00.886Z,79.2
2022-08-26T08:06:00.915Z,79.1
2022-08-26T08:07:01.080Z,79.7
2022-08-26T08:08:27.277Z,79.2
2022-08-26T08:09:00.377Z,79.4
2022-08-26T08:10:00.535Z,79.2
2022-08-26T08:11:00.694Z,78.1
2022-08-26T08:12:00.817Z,78.2
2022-08-26T08:13:00.987Z,77.8
2022-08-26T08:14:01.127Z,78.1
2022-08-26T08:15:00.278Z,77.5
2022-08-26T08:16:00.439Z,77.2
2022-08-26T08:17:00.703Z,77.5
2022-08-26T08:18:00.979Z,77
2022-08-26T08:19:00.876Z,76.5
2022-08-26T08:20:01.023Z,76.8
2022-08-26T08:21:20.921Z,77.3
2022-08-26T08:22:00.335Z,76.1
2022-08-26T08:23:00.471Z,76.1
2022-08-26T08:24:00.617Z,76.4
2022-08-26T08:25:00.776Z,75.7
2022-08-26T08:26:00.922Z,76.1
2022-08-26T08:27:01.092Z,76.1
2022-08-26T08:28:01.224Z,76
2022-08-26T08:29:00.369Z,76.1
2022-08-26T08:30:00.514Z,74.9
2022-08-26T08:31:00.687Z,73.7
2022-08-26T08:32:00.880Z,73.9
2022-08-26T08:33:00.966Z,74.3
2022-08-26T08:34:01.116Z,74
2022-08-26T08:35:00.287Z,74.8
2022-08-26T08:36:00.416Z,72.6
2022-08-26T08:37:00.593Z,72.9
2022-08-26T08:38:00.713Z,73.5
2022-08-26T08:39:00.861Z,74.6
2022-08-26T08:40:01.070Z,73.2
2022-08-26T08:41:01.171Z,74
2022-08-26T08:42:00.339Z,74.7
2022-08-26T08:43:00.473Z,74.3
2022-08-26T08:44:00.634Z,73.6
2022-08-26T08:45:00.784Z,74
2022-08-26T08:46:00.960Z,72.9
2022-08-26T08:47:01.107Z,73.6
2022-08-26T08:48:01.257Z,73.1
2022-08-26T08:49:00.412Z,72.2
2022-08-26T08:50:00.564Z,71.9
2022-08-26T08:51:00.742Z,72
2022-08-26T08:52:00.879Z,71.9
2022-08-26T08:53:01.044Z,71.1
2022-08-26T08:54:01.168Z,71.3
2022-08-26T08:55:00.332Z,71.1
2022-08-26T08:56:00.468Z,71.2
2022-08-26T08:57:00.621Z,70.9
2022-08-26T08:58:04.991Z,71.5
2022-08-26T08:59:00.923Z,71.2
2022-08-26T09:00:01.077Z,71.1
2022-08-26T09:01:01.257Z,70
2022-08-26T09:02:00.399Z,71.1
2022-08-26T09:03:00.551Z,71.8
2022-08-26T09:04:01.134Z,71.8
2022-08-26T09:05:00.841Z,71.8
2022-08-26T09:06:00.983Z,71.3
2022-08-26T09:07:01.130Z,70.8
2022-08-26T09:08:00.308Z,71.6
2022-08-26T09:09:00.445Z,71.2
2022-08-26T09:10:00.589Z,71.3
2022-08-26T09:11:00.733Z,71.5
2022-08-26T09:12:00.875Z,71.1
2022-08-26T09:13:01.046Z,70.1
2022-08-26T09:14:01.179Z,71.5
2022-08-26T09:15:00.331Z,69.5
2022-08-26T09:16:00.490Z,69.8
2022-08-26T09:17:00.695Z,69.9
2022-08-26T09:18:00.801Z,70.4
2022-08-26T09:19:00.964Z,70.8
2022-08-26T09:20:01.132Z,69.8
2022-08-26T09:21:00.261Z,69.9
2022-08-26T09:22:00.416Z,71
2022-08-26T09:23:00.576Z,69.5
2022-08-26T09:24:00.736Z,70.2
2022-08-26T09:25:00.910Z,70.9
2022-08-26T09:26:01.066Z,71
2022-08-26T09:27:01.193Z,69.9
2022-08-26T09:28:00.337Z,71.2
2022-08-26T09:29:00.500Z,69.7
2022-08-26T09:30:00.656Z,72.1
2022-08-26T09:31:00.860Z,69.6
2022-08-26T09:32:00.978Z,70
2022-08-26T09:33:01.104Z,69.9
2022-08-26T09:34:01.259Z,70.4
2022-08-26T09:35:00.408Z,70.9
2022-08-26T09:36:00.558Z,70.5
2022-08-26T09:37:00.734Z,70.3
2022-08-26T09:38:00.867Z,70.2
2022-08-26T09:39:01.031Z,69.6
2022-08-26T09:40:01.226Z,69.8
2022-08-26T09:41:00.331Z,71.4
2022-08-26T09:42:00.504Z,70.2
2022-08-26T09:43:00.647Z,71.2
2022-08-26T09:44:00.797Z,71.1
2022-08-26T09:45:00.946Z,71.6
2022-08-26T09:46:01.145Z,70.3
2022-08-26T09:47:01.258Z,70.8
2022-08-26T09:48:01.345Z,70.8
2022-08-26T09:49:00.548Z,72.1
2022-08-26T09:50:00.697Z,71.9
2022-08-26T09:51:00.862Z,71.7
2022-08-26T09:52:01.026Z,72.3
2022-08-26T09:53:01.150Z,71.3
2022-08-26T09:54:00.296Z,71.6
2022-08-26T09:55:00.490Z,71.3
2022-08-26T09:56:00.624Z,70.8
2022-08-26T09:57:00.784Z,71.3
2022-08-26T09:58:04.053Z,71
2022-08-26T09:59:01.078Z,70.9
2022-08-26T10:00:01.228Z,70.5
2022-08-26T10:01:00.437Z,70.4
2022-08-26T10:03:00.705Z,70.2
2022-08-26T10:04:00.887Z,70.3
2022-08-26T10:05:09.186Z,70.7
2022-08-26T10:06:01.143Z,70.4
2022-08-26T10:07:00.312Z,69.7
2022-08-26T10:08:00.454Z,69.7
2022-08-26T10:09:01.395Z,69.8
2022-08-26T10:10:00.761Z,69.7
2022-08-26T10:11:00.909Z,69.9
2022-08-26T10:12:01.057Z,69.9
2022-08-26T10:13:01.200Z,70.8
2022-08-26T10:14:00.370Z,69.8
2022-08-26T10:15:00.539Z,70.6
2022-08-26T10:16:00.666Z,70.5
2022-08-26T10:17:00.872Z,70.2
2022-08-26T10:18:00.960Z,70.6
2022-08-26T10:19:01.119Z,70.6
2022-08-26T10:20:00.312Z,70.7
2022-08-26T10:21:00.439Z,70.7
2022-08-26T10:22:00.598Z,71.2
2022-08-26T10:23:00.739Z,71.7
2022-08-26T10:24:00.878Z,71
2022-08-26T10:25:01.051Z,70.7
2022-08-26T10:26:01.233Z,71.4
2022-08-26T10:27:00.345Z,72
2022-08-26T10:28:00.495Z,72.3
2022-08-26T10:29:00.650Z,71.8
2022-08-26T10:30:00.789Z,72.9
2022-08-26T10:31:00.968Z,73.5
2022-08-26T10:32:02.479Z,73.9
2022-08-26T10:33:00.259Z,73.9
2022-08-26T10:34:00.751Z,74.5
2022-08-26T10:35:00.575Z,74
2022-08-26T10:36:00.733Z,73.9
2022-08-26T10:37:14.567Z,74.1
2022-08-26T10:38:01.035Z,72.5
2022-08-26T10:39:01.197Z,73.2
2022-08-26T10:40:00.418Z,74.4
2022-08-26T10:41:00.476Z,74.1
2022-08-26T10:42:00.638Z,72.7
2022-08-26T10:43:00.785Z,72.3
2022-08-26T10:44:00.970Z,73.4
2022-08-26T10:45:01.077Z,72.8
2022-08-26T10:46:01.280Z,73.4
2022-08-26T10:47:00.366Z,72.4
2022-08-26T10:48:00.513Z,72.8
2022-08-26T10:49:00.680Z,75
2022-08-26T10:50:03.359Z,75.2
2022-08-26T10:51:00.973Z,74.4
2022-08-26T10:52:01.094Z,74.5
2022-08-26T10:53:01.246Z,74.7
2022-08-26T10:54:00.414Z,75.3
2022-08-26T10:55:00.563Z,75.2
2022-08-26T10:56:00.832Z,74.8
2022-08-26T10:57:00.857Z,74.8
2022-08-26T10:58:04.925Z,74.5
2022-08-26T10:59:01.148Z,74.7
2022-08-26T11:00:00.291Z,75.4
2022-08-26T11:01:00.572Z,74.8
2022-08-26T11:02:00.601Z,74.7
2022-08-26T11:03:00.765Z,74.5
2022-08-26T11:04:00.936Z,74.7
2022-08-26T11:05:01.050Z,74
2022-08-26T11:06:01.202Z,73.9
2022-08-26T11:07:00.345Z,74.6
2022-08-26T11:08:00.509Z,75.5
2022-08-26T11:09:00.662Z,75.8
2022-08-26T11:10:00.835Z,75.9
2022-08-26T11:11:00.962Z,75.6
2022-08-26T11:12:05.130Z,74.5
2022-08-26T11:14:00.380Z,74.8
2022-08-26T11:15:00.547Z,73.1
2022-08-26T11:16:01.099Z,70.7
2022-08-26T11:17:00.878Z,71.5
2022-08-26T11:18:00.998Z,71.7
2022-08-26T11:19:01.115Z,71.4
2022-08-26T11:20:02.242Z,71.9
2022-08-26T11:21:00.422Z,71.3
2022-08-26T11:22:00.569Z,71.9
2022-08-26T11:23:00.722Z,71.3
2022-08-26T11:24:00.862Z,72.4
2022-08-26T11:25:01.039Z,72.5
2022-08-26T11:26:01.169Z,73.2
2022-08-26T11:27:00.347Z,72.8
2022-08-26T11:28:00.814Z,72.9
2022-08-26T11:29:00.612Z,72.2
2022-08-26T11:30:00.780Z,72.1
2022-08-26T11:31:00.915Z,71.8
2022-08-26T11:32:01.150Z,70.4
2022-08-26T11:33:01.217Z,68.6
2022-08-26T11:34:00.372Z,66
2022-08-26T11:35:00.604Z,66.4
2022-08-26T11:36:00.665Z,66.7
2022-08-26T11:37:00.829Z,66.2
2022-08-26T11:38:01.009Z,66.7
2022-08-26T11:39:01.137Z,68.1
2022-08-26T11:40:00.402Z,65.8
2022-08-26T11:41:00.430Z,65.8
2022-08-26T11:42:00.589Z,66.7
2022-08-26T11:43:00.758Z,67.4
2022-08-26T11:44:01.293Z,66.9
2022-08-26T11:45:04.707Z,66.8
2022-08-26T11:46:01.328Z,68.5
2022-08-26T11:47:00.371Z,67
2022-08-26T11:48:00.530Z,67.9
2022-08-26T11:49:00.670Z,66.7
2022-08-26T11:50:00.838Z,67.4
2022-08-26T11:51:00.967Z,66.8
2022-08-26T11:52:01.135Z,67.7
2022-08-26T11:53:00.268Z,67.1
2022-08-26T11:54:00.441Z,67.4
2022-08-26T11:55:00.594Z,67.4
2022-08-26T11:56:00.732Z,68.4
2022-08-26T11:57:03.750Z,67.7
2022-08-26T11:58:01.053Z,68.2
2022-08-26T11:59:01.193Z,67.7
2022-08-26T12:00:00.383Z,67.1
2022-08-26T12:01:00.488Z,68
2022-08-26T12:02:00.634Z,66.5
2022-08-26T12:03:00.800Z,68
2022-08-26T12:04:01.219Z,67
2022-08-26T12:05:01.136Z,67.2
2022-08-26T12:06:00.262Z,66.8
2022-08-26T12:07:00.427Z,66.9
2022-08-26T12:08:00.587Z,67.2
2022-08-26T12:09:00.735Z,67.2
2022-08-26T12:10:02.186Z,67.8
2022-08-26T12:11:01.016Z,68.3
2022-08-26T12:12:01.173Z,68.7
2022-08-26T12:13:00.325Z,68.3
2022-08-26T12:14:00.460Z,68.6
2022-08-26T12:15:00.642Z,68
2022-08-26T12:16:00.759Z,69.2
2022-08-26T12:17:00.909Z,68.4
2022-08-26T12:18:01.065Z,67.3
2022-08-26T12:19:01.208Z,65
2022-08-26T12:20:00.387Z,65.5
2022-08-26T12:21:00.530Z,66.7
2022-08-26T12:22:00.661Z,67.3
2022-08-26T12:23:00.802Z,67.3
2022-08-26T12:24:00.946Z,68.7
2022-08-26T12:25:01.115Z,68.5
2022-08-26T12:26:01.233Z,69
2022-08-26T12:27:00.383Z,68.9
2022-08-26T12:28:00.542Z,69.5
2022-08-26T12:29:00.693Z,69.2
2022-08-26T12:30:00.852Z,69.7
2022-08-26T12:31:01.052Z,69.6
2022-08-26T12:32:01.194Z,69.8
2022-08-26T12:33:00.306Z,69.5
2022-08-26T12:34:00.464Z,68.7
2022-08-26T12:35:00.655Z,69
2022-08-26T12:36:00.749Z,67.8
2022-08-26T12:37:00.900Z,68.1
2022-08-26T12:38:01.054Z,68.1
2022-08-26T12:39:01.206Z,68.5
2022-08-26T12:40:00.415Z,68.9
2022-08-26T12:41:00.502Z,69.2
2022-08-26T12:42:00.646Z,70.1
2022-08-26T12:43:00.809Z,70.3
2022-08-26T12:44:00.944Z,70.2
2022-08-26T12:45:01.127Z,71
2022-08-26T12:46:01.289Z,70.8
2022-08-26T12:47:00.405Z,71.1
2022-08-26T12:48:00.554Z,70.9
2022-08-26T12:49:00.724Z,71.5
2022-08-26T12:50:00.873Z,72.1
2022-08-26T12:51:01.015Z,71
2022-08-26T12:52:01.149Z,71.6
2022-08-26T12:53:00.317Z,72.1
2022-08-26T12:54:00.455Z,71.8
2022-08-26T12:55:00.606Z,71.8
2022-08-26T12:56:00.774Z,72.6
2022-08-26T12:57:00.906Z,72
2022-08-26T12:58:01.066Z,72
2022-08-26T12:59:01.217Z,72.5
2022-08-26T13:00:00.363Z,72.4
2022-08-26T13:01:00.639Z,71.9
2022-08-26T13:02:00.721Z,72.5
2022-08-26T13:03:00.822Z,72.2
2022-08-26T13:04:00.964Z,72
2022-08-26T13:05:01.176Z,72.5
2022-08-26T13:07:00.396Z,72.9
2022-08-26T13:08:00.570Z,73.6
2022-08-26T13:09:00.708Z,74
2022-08-26T13:10:00.850Z,73.6
2022-08-26T13:11:01.001Z,74.2
2022-08-26T13:12:02.141Z,73.6
2022-08-26T13:13:00.312Z,74.1
2022-08-26T13:14:00.465Z,72.7
2022-08-26T13:15:00.622Z,73.4
2022-08-26T13:16:00.805Z,72.8
2022-08-26T13:17:00.944Z,73.5
2022-08-26T13:18:01.074Z,73.5
2022-08-26T13:19:01.223Z,73.9
2022-08-26T13:20:03.811Z,74.7
2022-08-26T13:21:00.521Z,74.4
2022-08-26T13:22:00.688Z,74.8
2022-08-26T13:23:00.822Z,74.1
2022-08-26T13:24:00.988Z,74.4
2022-08-26T13:25:01.128Z,73.3
2022-08-26T13:26:00.278Z,73.4
2022-08-26T13:27:00.458Z,74.6
2022-08-26T13:28:00.580Z,74.5